메인 페이지
METAR-TAF:

METAR-TAF

공항 :

몽고메리, 앨라배마, 미국

위도: 32-18-01N, 경도: 086-24-22W, 고도: 67m

현재 날씨관측

예보는 19분 전, 00:53시(UTC)에 발표되었습니다.
무풍
온도 24°C
습도 94%
기압 1016 hPa
시정: 12.9km
고도 1500ft 상공 구름 조금

METAR: KMGM 150053Z 00000KT 8SM FEW015 24/23 A3001 RMK AO2 SLP160 T02440233

시각: 20:12 (01:12 UTC)

예보

예보는 1 시간 32분 전, 23:40시(UTC)에 발표되었습니다.
예보 대상 시간: 15일 00시부터 15일 24시까지 (UTC)
여러 방향의 바람 3kt
시정: 10km
고도 5000ft 상공 구름 조금
고도 10000ft 상공 구름 보통
15일 0600시부터 (UTC)
kt
시정: 6.4km
고도 25000ft 상공 구름 조금
박무
15일 1400시부터 (UTC)
kt
시정: 10km
고도 25000ft 상공 구름 조금
15일 1600시부터 (UTC)
남동5kt
시정: 10km
고도 5000ft 상공 구름 보통
확률 30%
15일 18시부터 15일 23시까지 (UTC)
시정: 6.4km
고도 5000ft 상공 구름 많음, 적란운.
뇌우, 비

TAF: KMGM 142340Z 1500/1524 VRB03KT P6SM FEW050 SCT100 FM150600 00000KT 4SM BR FEW250 FM151400 00000KT P6SM FEW250 FM151600 14005KT P6SM SCT050 PROB30 1518/1523 4SM TSRA BKN050CB

4,000개 이상의 공항 관측 자료 및 예보 (METAR 및 TAF 보고).

지도상에서 검색 가능한 기상관측소가 노란 점과 빨간 점으로 표시되어 있습니다.

기상관측소 명을 보려면 표시 위로 마우스를 이동하세요.

날씨 관측과 예보를 보려면 클릭하세요.

지도 변경 : 확대하려면 엑스 표시가 있는 녹색 버튼, 축소하려면 빼기 표시가 있는 녹색 버튼, 다음 페이지의 지도를 보려면 녹색 화살표를 클릭하세요.


METAR-TAF: